createdAt,value
2023-04-15T00:00:08.387Z,101878.84
2023-04-15T00:02:40.966Z,101823.72
2023-04-15T00:05:09.881Z,101874.78
2023-04-15T00:07:37.835Z,101880.75
2023-04-15T00:10:09.257Z,101880.75
2023-04-15T00:12:37.638Z,101882.56
2023-04-15T00:15:06.747Z,101874.53
2023-04-15T00:17:34.810Z,101881.69
2023-04-15T00:20:03.764Z,101883.53
2023-04-15T00:22:32.403Z,101877.31
2023-04-15T00:25:00.405Z,101851.38
2023-04-15T00:27:29.831Z,101881.69
2023-04-15T00:29:58.268Z,101879.97
2023-04-15T00:32:26.341Z,101878.19
2023-04-15T00:34:54.275Z,101879.22
2023-04-15T00:37:22.426Z,101878.25
2023-04-15T00:39:50.475Z,101880.91
2023-04-15T00:42:19.834Z,101873.75
2023-04-15T00:44:51.498Z,101873.75
2023-04-15T00:47:21.451Z,101881.78
2023-04-15T00:49:49.398Z,101869.34
2023-04-15T00:52:17.474Z,101876.53
2023-04-15T00:54:45.458Z,101878.25
2023-04-15T00:57:13.463Z,101872.00
2023-04-15T00:59:41.517Z,101866.66
2023-04-15T01:02:11.245Z,101868.41
2023-04-15T01:04:39.578Z,101872.00
2023-04-15T01:07:07.501Z,101869.44
2023-04-15T01:09:35.626Z,101875.66
2023-04-15T01:12:04.156Z,101872.13
2023-04-15T01:14:32.710Z,101867.69
2023-04-15T01:17:00.812Z,101870.38
2023-04-15T01:19:30.166Z,101865.03
2023-04-15T01:21:58.681Z,101876.69
2023-04-15T01:24:28.287Z,101872.38
2023-04-15T01:26:57.791Z,101868.72
2023-04-15T01:29:25.831Z,101878.59
2023-04-15T01:31:55.030Z,101875.91
2023-04-15T01:34:23.329Z,101873.31
2023-04-15T01:36:55.188Z,101874.16
2023-04-15T01:39:23.493Z,101875.09
2023-04-15T01:41:51.421Z,101866.31
2023-04-15T01:44:21.055Z,101876.06
2023-04-15T01:46:49.733Z,101784.44
2023-04-15T01:49:18.091Z,101874.44
2023-04-15T01:51:46.070Z,101864.91
2023-04-15T01:54:14.317Z,101869.13
2023-04-15T01:56:42.284Z,101864.66
2023-04-15T01:59:11.020Z,101866.47
2023-04-15T02:01:40.952Z,101874.50
2023-04-15T02:04:16.414Z,101865.78
2023-04-15T02:06:44.763Z,101867.44
2023-04-15T02:09:13.593Z,101877.25
2023-04-15T02:11:41.667Z,101872.78
2023-04-15T02:14:09.713Z,101878.13
2023-04-15T02:16:37.687Z,101873.72
2023-04-15T02:19:08.101Z,101875.53
2023-04-15T02:21:38.882Z,101874.66
2023-04-15T02:24:07.482Z,101872.94
2023-04-15T02:26:35.458Z,101875.63
2023-04-15T02:29:03.590Z,101882.66
2023-04-15T02:31:34.092Z,101878.19
2023-04-15T02:34:04.311Z,101885.44
2023-04-15T02:36:34.612Z,101880.00
2023-04-15T02:39:02.896Z,101883.63
2023-04-15T02:41:31.314Z,101858.81
2023-04-15T02:43:59.763Z,101887.19
2023-04-15T02:46:30.253Z,101896.06
2023-04-15T02:49:00.360Z,101888.03
2023-04-15T02:51:33.401Z,101853.59
2023-04-15T02:54:01.689Z,101903.16
2023-04-15T02:56:31.442Z,101903.16
2023-04-15T02:58:59.669Z,101889.78
2023-04-15T03:01:27.777Z,101896.84
2023-04-15T03:03:55.882Z,101894.19
2023-04-15T03:06:24.710Z,101889.66
2023-04-15T03:08:54.093Z,101905.66
2023-04-15T03:11:22.737Z,101895.91
2023-04-15T03:13:50.819Z,101898.56
2023-04-15T03:16:30.787Z,101901.19
2023-04-15T03:18:59.888Z,101912.75
2023-04-15T03:21:28.201Z,101901.41
2023-04-15T03:23:58.410Z,101905.66
2023-04-15T03:26:29.258Z,101872.63
2023-04-15T03:29:01.096Z,101900.56
2023-04-15T03:31:29.704Z,101893.38
2023-04-15T03:33:57.720Z,101899.38
2023-04-15T03:36:25.911Z,101899.38
2023-04-15T03:38:54.026Z,101909.97
2023-04-15T03:41:23.594Z,101904.63
2023-04-15T03:43:52.105Z,101917.13
2023-04-15T03:46:20.120Z,101916.22
2023-04-15T03:48:48.426Z,101919.81
2023-04-15T03:51:16.492Z,101914.63
2023-04-15T03:53:44.564Z,101913.59
2023-04-15T03:56:12.547Z,101913.53
2023-04-15T03:58:41.888Z,101897.63
2023-04-15T04:01:09.866Z,101907.22
2023-04-15T04:03:38.326Z,101906.28
2023-04-15T04:06:06.690Z,101918.78
2023-04-15T04:08:34.655Z,101914.31
2023-04-15T04:11:02.593Z,101920.59
2023-04-15T04:13:30.661Z,101918.88
2023-04-15T04:16:00.009Z,101914.47
2023-04-15T04:18:27.993Z,101916.22
2023-04-15T04:20:56.515Z,101913.53
2023-04-15T04:23:24.754Z,101919.81
2023-04-15T04:25:52.867Z,101914.47
2023-04-15T04:28:20.873Z,101917.13
2023-04-15T04:30:48.920Z,101925.16
2023-04-15T04:33:18.248Z,101837.66
2023-04-15T04:35:46.353Z,101926.91
2023-04-15T04:38:14.423Z,101923.38
2023-04-15T04:40:42.401Z,101915.03
2023-04-15T04:43:10.612Z,101903.41
2023-04-15T04:45:38.633Z,101926.75
2023-04-15T04:48:08.745Z,101932.94
2023-04-15T04:50:38.128Z,101930.88
2023-04-15T04:53:06.092Z,101931.59
2023-04-15T04:55:36.949Z,101931.44
2023-04-15T04:58:05.101Z,101939.22
2023-04-15T05:00:33.070Z,101934.56
2023-04-15T05:03:01.170Z,101949.50
2023-04-15T05:05:29.174Z,101941.31
2023-04-15T05:07:58.584Z,101939.44
2023-04-15T05:10:26.541Z,101945.50
2023-04-15T05:12:54.587Z,101949.84
2023-04-15T05:15:22.758Z,101948.81
2023-04-15T05:17:50.902Z,101954.00
2023-04-15T05:20:19.173Z,101948.47
2023-04-15T05:22:47.287Z,101963.53
2023-04-15T05:25:16.952Z,101952.81
2023-04-15T05:27:45.410Z,101957.03
2023-04-15T05:30:13.820Z,101948.13
2023-04-15T05:32:41.924Z,101958.34
2023-04-15T05:35:10.092Z,101961.91
2023-04-15T05:37:38.188Z,101958.97
2023-04-15T05:40:06.751Z,101957.91
2023-04-15T05:42:36.429Z,101955.09
2023-04-15T05:45:05.586Z,101955.78
2023-04-15T05:47:33.517Z,101956.47
2023-04-15T05:50:01.601Z,101960.78
2023-04-15T05:52:29.594Z,101964.16
2023-04-15T05:54:57.694Z,101958.63
2023-04-15T05:57:25.675Z,101956.63
2023-04-15T05:59:57.279Z,101973.50
2023-04-15T06:02:25.428Z,101961.94
2023-04-15T06:04:53.846Z,101967.03
2023-04-15T06:07:21.870Z,101958.28
2023-04-15T06:09:49.848Z,101973.09
2023-04-15T06:12:17.831Z,101972.09
2023-04-15T06:14:45.806Z,101966.59
2023-04-15T06:17:18.397Z,101950.34
2023-04-15T06:19:46.460Z,101969.09
2023-04-15T06:22:14.384Z,101967.19
2023-04-15T06:24:42.443Z,101980.41
2023-04-15T06:27:10.495Z,101990.22
2023-04-15T06:29:38.529Z,101990.91
2023-04-15T06:32:06.946Z,101985.47
2023-04-15T06:34:36.493Z,101984.44
2023-04-15T06:37:06.224Z,101976.63
2023-04-15T06:39:34.444Z,101986.06
2023-04-15T06:42:03.406Z,101998.44
2023-04-15T06:44:33.275Z,101997.47
2023-04-15T06:47:02.226Z,101997.28
2023-04-15T06:49:30.236Z,101997.22
2023-04-15T06:52:00.610Z,102001.53
2023-04-15T06:54:28.788Z,102000.50
2023-04-15T06:56:56.719Z,101996.00
2023-04-15T06:59:25.264Z,102008.38
2023-04-15T07:01:53.288Z,102003.78
2023-04-15T07:04:21.327Z,102003.84
2023-04-15T07:06:49.256Z,102010.69
2023-04-15T07:09:18.616Z,102010.63
2023-04-15T07:11:46.565Z,102006.03
2023-04-15T07:14:14.577Z,102019.31
2023-04-15T07:16:42.487Z,102017.50
2023-04-15T07:19:10.723Z,102015.59
2023-04-15T07:21:41.243Z,101982.78
2023-04-15T07:24:10.533Z,102025.38
2023-04-15T07:26:39.844Z,102026.31
2023-04-15T07:29:07.847Z,102019.91
2023-04-15T07:31:36.856Z,102037.00
2023-04-15T07:34:05.240Z,102031.34
2023-04-15T07:36:33.181Z,102031.34
2023-04-15T07:39:02.302Z,102033.94
2023-04-15T07:41:30.920Z,102032.03
2023-04-15T07:44:00.466Z,101999.78
2023-04-15T07:46:28.557Z,102025.72
2023-04-15T07:48:56.464Z,102031.78
2023-04-15T07:51:24.899Z,102029.97
2023-04-15T07:53:53.249Z,102036.97
2023-04-15T07:56:21.872Z,102042.22
2023-04-15T07:58:49.951Z,102036.78
2023-04-15T08:01:19.605Z,102034.94
2023-04-15T08:03:48.575Z,102041.88
2023-04-15T08:06:16.653Z,102040.94
2023-04-15T08:08:44.643Z,102039.97
2023-04-15T08:11:12.787Z,102044.38
2023-04-15T08:13:40.781Z,102042.56
2023-04-15T08:16:21.385Z,102049.59
2023-04-15T08:18:50.373Z,102032.97
2023-04-15T08:21:19.465Z,102048.59
2023-04-15T08:23:50.193Z,102049.47
2023-04-15T08:26:18.863Z,102039.78
2023-04-15T08:28:47.512Z,102051.22
2023-04-15T08:31:16.991Z,102044.88
2023-04-15T08:33:46.975Z,102048.44
2023-04-15T08:36:15.072Z,102053.78
2023-04-15T08:38:43.129Z,102044.97
2023-04-15T08:41:23.689Z,102053.63
2023-04-15T08:43:55.598Z,102046.44
2023-04-15T08:46:24.469Z,102052.66
2023-04-15T08:48:57.627Z,102046.44
2023-04-15T08:51:27.237Z,102049.97
2023-04-15T08:53:56.268Z,102043.69
2023-04-15T08:56:26.780Z,102063.38
2023-04-15T08:58:55.188Z,102022.69
2023-04-15T09:01:24.286Z,102062.47
2023-04-15T09:03:54.702Z,102053.63
2023-04-15T09:06:23.853Z,102067.84
2023-04-15T09:08:53.106Z,102042.28
2023-04-15T09:11:23.176Z,102066.94
2023-04-15T09:13:51.536Z,102082.16
2023-04-15T09:16:20.328Z,102059.94
2023-04-15T09:18:48.331Z,102058.00
2023-04-15T09:21:19.274Z,102026.31
2023-04-15T09:23:58.781Z,102052.75
2023-04-15T09:26:34.644Z,101887.56
2023-04-15T09:29:07.889Z,102043.81
2023-04-15T09:31:36.811Z,102055.53
2023-04-15T09:34:04.963Z,102053.78
2023-04-15T09:36:53.348Z,102057.25
2023-04-15T09:39:21.542Z,102062.72
2023-04-15T09:42:06.697Z,102054.56
2023-04-15T09:44:34.802Z,102042.38
2023-04-15T09:47:02.926Z,102056.38
2023-04-15T09:49:31.027Z,102064.34
2023-04-15T09:52:05.668Z,102066.16
2023-04-15T09:54:36.293Z,102050.16
2023-04-15T09:57:08.288Z,102053.63
2023-04-15T09:59:36.618Z,102058.00
2023-04-15T10:02:07.628Z,102068.72
2023-04-15T10:04:38.076Z,102055.19
2023-04-15T10:07:09.653Z,102059.72
2023-04-15T10:09:39.123Z,102024.16
2023-04-15T10:12:07.394Z,102053.47
2023-04-15T10:14:39.047Z,102064.03
2023-04-15T10:17:08.957Z,102062.19
2023-04-15T10:19:38.756Z,102047.06
2023-04-15T10:22:08.869Z,102065.09
2023-04-15T10:24:37.328Z,102038.25
2023-04-15T10:27:06.876Z,102061.25
2023-04-15T10:29:35.577Z,102065.69
2023-04-15T10:32:04.723Z,102070.94
2023-04-15T10:34:33.922Z,102070.94
2023-04-15T10:37:04.540Z,102072.69
2023-04-15T10:39:45.201Z,102067.22
2023-04-15T10:42:15.352Z,102070.00
2023-04-15T10:44:44.915Z,102073.53
2023-04-15T10:47:15.426Z,102060.19
2023-04-15T10:49:49.090Z,102073.72
2023-04-15T10:52:18.688Z,102076.47
2023-04-15T10:54:48.050Z,102079.09
2023-04-15T10:57:22.500Z,102073.81
2023-04-15T11:00:11.460Z,102087.22
2023-04-15T11:02:44.920Z,102078.41
2023-04-15T11:05:13.704Z,102060.31
2023-04-15T11:07:50.963Z,102076.75
2023-04-15T11:10:56.599Z,102075.97
2023-04-15T11:13:30.491Z,102118.22
2023-04-15T11:16:01.622Z,102074.66
2023-04-15T11:18:34.946Z,102088.50
2023-04-15T11:21:05.605Z,102094.81
2023-04-15T11:23:39.254Z,102094.16
2023-04-15T11:26:11.935Z,102096.91
2023-04-15T11:28:41.924Z,102098.66
2023-04-15T11:31:12.106Z,102098.72
2023-04-15T11:33:48.038Z,102099.69
2023-04-15T11:36:16.057Z,102115.88
2023-04-15T11:38:45.943Z,102109.72
2023-04-15T11:41:15.609Z,102112.41
2023-04-15T11:43:43.991Z,102104.47
2023-04-15T11:46:12.066Z,102101.94
2023-04-15T11:48:44.635Z,102107.38
2023-04-15T11:51:13.691Z,102117.28
2023-04-15T11:53:43.481Z,102114.66
2023-04-15T11:56:12.483Z,102112.34
2023-04-15T11:58:43.389Z,102123.75
2023-04-15T12:01:11.862Z,102107.16
2023-04-15T12:03:41.704Z,102136.50
2023-04-15T12:06:16.661Z,102129.28
2023-04-15T12:08:54.095Z,102126.72
2023-04-15T12:11:23.296Z,102126.88
2023-04-15T12:13:52.611Z,102138.56
2023-04-15T12:16:20.941Z,102130.78
2023-04-15T12:18:51.892Z,102130.69
2023-04-15T12:21:20.972Z,102125.34
2023-04-15T12:23:52.916Z,102133.38
2023-04-15T12:26:28.304Z,102138.03
2023-04-15T12:29:02.210Z,102151.34
2023-04-15T12:31:30.493Z,102148.78
2023-04-15T12:33:59.154Z,102154.25
2023-04-15T12:36:27.289Z,102146.69
2023-04-15T12:38:55.506Z,102153.38
2023-04-15T12:41:24.408Z,102146.53
2023-04-15T12:43:52.388Z,102161.47
2023-04-15T12:46:21.981Z,102143.56
2023-04-15T12:48:49.956Z,102159.59
2023-04-15T12:51:17.930Z,102143.69
2023-04-15T12:53:45.916Z,102139.09
2023-04-15T12:56:13.870Z,102140.91
2023-04-15T12:58:41.804Z,102135.25
2023-04-15T13:01:10.211Z,102144.34
2023-04-15T13:03:39.816Z,102144.34
2023-04-15T13:06:08.287Z,102151.47
2023-04-15T13:08:38.491Z,102148.88
2023-04-15T13:11:08.831Z,102146.19
2023-04-15T13:13:36.833Z,102146.25
2023-04-15T13:16:05.306Z,102139.09
2023-04-15T13:18:34.809Z,102134.66
2023-04-15T13:21:05.433Z,102137.34
2023-04-15T13:23:33.429Z,102145.38
2023-04-15T13:26:01.398Z,102141.88
2023-04-15T13:28:29.564Z,102140.13
2023-04-15T13:30:57.579Z,102128.44
2023-04-15T13:33:25.563Z,102156.28
2023-04-15T13:35:53.594Z,102147.28
2023-04-15T13:38:22.873Z,102154.47
2023-04-15T13:40:51.016Z,102153.69
2023-04-15T13:43:19.170Z,102144.78
2023-04-15T13:45:47.992Z,102152.81
2023-04-15T13:48:16.236Z,102151.44
2023-04-15T13:50:45.530Z,102154.72
2023-04-15T13:53:13.512Z,102158.34
2023-04-15T13:55:43.597Z,102151.28
2023-04-15T13:58:12.238Z,102150.41
2023-04-15T14:00:40.489Z,102149.53
2023-04-15T14:03:08.547Z,102154.03
2023-04-15T14:05:36.596Z,102147.03
2023-04-15T14:08:04.633Z,102149.91
2023-04-15T14:10:32.699Z,102152.47
2023-04-15T14:13:02.016Z,102149.91
2023-04-15T14:15:30.075Z,102166.00
2023-04-15T14:17:58.876Z,102160.69
2023-04-15T14:20:26.847Z,102167.84
2023-04-15T14:22:54.759Z,102160.69
2023-04-15T14:25:32.775Z,102164.25
2023-04-15T14:28:03.509Z,102163.78
2023-04-15T14:30:31.932Z,102161.44
2023-04-15T14:32:59.978Z,102187.66
2023-04-15T14:35:28.056Z,102184.97
2023-04-15T14:37:56.359Z,102160.81
2023-04-15T14:40:24.583Z,102189.56
2023-04-15T14:42:52.556Z,102186.03
2023-04-15T14:45:21.994Z,102190.59
2023-04-15T14:47:50.093Z,102190.69
2023-04-15T14:50:18.652Z,102182.72
2023-04-15T14:52:46.692Z,102165.31
2023-04-15T14:55:15.112Z,102196.22
2023-04-15T14:57:44.218Z,102151.84
2023-04-15T15:00:15.953Z,102167.53
2023-04-15T15:02:47.484Z,102184.78
2023-04-15T15:05:16.302Z,102185.91
2023-04-15T15:07:44.470Z,102102.81
2023-04-15T15:10:12.735Z,102167.91
2023-04-15T15:12:40.845Z,102112.50
2023-04-15T15:15:25.086Z,102207.09
2023-04-15T15:17:58.198Z,102198.03
2023-04-15T15:20:26.661Z,102201.44
2023-04-15T15:22:54.637Z,102190.69
2023-04-15T15:25:22.853Z,102198.22
2023-04-15T15:27:51.017Z,102205.19
2023-04-15T15:30:19.277Z,102193.56
2023-04-15T15:32:47.504Z,102195.22
2023-04-15T15:35:17.215Z,102201.03
2023-04-15T15:37:46.764Z,102199.13
2023-04-15T15:40:15.200Z,102207.88
2023-04-15T15:42:43.266Z,102205.00
2023-04-15T15:45:12.033Z,102208.50
2023-04-15T15:47:40.060Z,102197.94
2023-04-15T15:50:08.967Z,102207.53
2023-04-15T15:52:38.611Z,102209.44
2023-04-15T15:55:07.489Z,102174.19
2023-04-15T15:57:35.501Z,102192.56
2023-04-15T16:02:59.838Z,102191.44
2023-04-15T16:05:22.522Z,102190.41
2023-04-15T16:07:51.943Z,102188.41
2023-04-15T16:10:20.037Z,102187.28
2023-04-15T16:12:48.156Z,102191.59
2023-04-15T16:15:16.221Z,102190.56
2023-04-15T16:17:44.287Z,102190.56
2023-04-15T16:20:12.473Z,102202.72
2023-04-15T16:22:40.469Z,102194.66
2023-04-15T16:25:10.843Z,102195.25
2023-04-15T16:27:54.652Z,102202.28
2023-04-15T16:30:28.879Z,102112.88
2023-04-15T16:32:57.847Z,102196.75
2023-04-15T16:35:25.916Z,102203.22
2023-04-15T16:37:53.895Z,102201.13
2023-04-15T16:40:23.235Z,102207.41
2023-04-15T16:42:51.643Z,102212.84
2023-04-15T16:45:20.280Z,102207.47
2023-04-15T16:47:48.262Z,102217.25
2023-04-15T16:50:16.354Z,102212.78
2023-04-15T16:52:44.470Z,102211.88
2023-04-15T16:55:12.674Z,102208.28
2023-04-15T16:58:01.157Z,102203.16
2023-04-15T17:00:30.165Z,102217.25
2023-04-15T17:02:58.205Z,102216.38
2023-04-15T17:05:27.494Z,102212.78
2023-04-15T17:07:55.812Z,102202.53
2023-04-15T17:10:24.038Z,102214.66
2023-04-15T17:12:53.355Z,102209.28
2023-04-15T17:15:21.548Z,102220.91
2023-04-15T17:17:49.892Z,102209.47
2023-04-15T17:20:18.413Z,102220.03
2023-04-15T17:22:46.744Z,102169.72
2023-04-15T17:25:15.193Z,102207.53
2023-04-15T17:27:43.260Z,102214.66
2023-04-15T17:30:13.023Z,102214.66
2023-04-15T17:32:41.117Z,102221.94
2023-04-15T17:35:09.930Z,102217.41
2023-04-15T17:37:38.808Z,102197.84
2023-04-15T17:40:08.970Z,102223.66
2023-04-15T17:42:37.111Z,102225.28
2023-04-15T17:45:05.733Z,102232.44
2023-04-15T17:47:35.411Z,102217.41
2023-04-15T17:50:03.463Z,102234.09
2023-04-15T17:52:31.413Z,102236.66
2023-04-15T17:54:59.449Z,102243.69
2023-04-15T17:57:27.388Z,102248.09
2023-04-15T17:59:55.524Z,102240.06
2023-04-15T18:02:23.630Z,102244.47
2023-04-15T18:04:53.741Z,102246.19
2023-04-15T18:07:21.845Z,102248.00
2023-04-15T18:09:50.597Z,102253.31
2023-04-15T18:12:18.749Z,102257.81
2023-04-15T18:14:46.801Z,102264.03
2023-04-15T18:17:15.304Z,102262.22
2023-04-15T18:19:43.552Z,102261.25
2023-04-15T18:22:13.049Z,102261.25
2023-04-15T18:24:41.032Z,102210.59
2023-04-15T18:27:09.020Z,102260.22
2023-04-15T18:29:37.261Z,102268.22
2023-04-15T18:32:05.541Z,102267.25
2023-04-15T18:34:33.579Z,102267.16
2023-04-15T18:37:02.067Z,102269.84
2023-04-15T18:39:32.133Z,102276.88
2023-04-15T18:42:00.225Z,102276.00
2023-04-15T18:44:28.422Z,102283.19
2023-04-15T18:46:56.716Z,102275.06
2023-04-15T18:49:25.888Z,102280.50
2023-04-15T18:51:54.121Z,102286.72
2023-04-15T18:54:22.245Z,102278.56
2023-04-15T18:56:51.872Z,102272.38
2023-04-15T18:59:29.151Z,102275.06
2023-04-15T19:01:59.074Z,102305.38
2023-04-15T19:04:28.812Z,102311.66
2023-04-15T19:06:57.367Z,102287.34
2023-04-15T19:09:25.443Z,102310.91
2023-04-15T19:11:54.821Z,102305.88
2023-04-15T19:14:23.276Z,102305.69
2023-04-15T19:16:51.262Z,102302.31
2023-04-15T19:19:19.314Z,102312.19
2023-04-15T19:21:49.718Z,102317.91
2023-04-15T19:24:18.128Z,102312.53
2023-04-15T19:26:49.412Z,102295.34
2023-04-15T19:29:19.020Z,102316.41
2023-04-15T19:31:47.017Z,102285.28
2023-04-15T19:34:14.938Z,102307.63
2023-04-15T19:36:43.417Z,102320.28
2023-04-15T19:39:11.403Z,102316.81
2023-04-15T19:41:39.763Z,102313.34
2023-04-15T19:44:08.136Z,102317.06
2023-04-15T19:46:37.689Z,102316.28
2023-04-15T19:49:05.995Z,102313.84
2023-04-15T19:51:34.579Z,102318.28
2023-04-15T19:54:02.634Z,102306.03
2023-04-15T19:56:32.845Z,102318.53
2023-04-15T19:59:02.336Z,102317.72
2023-04-15T20:01:30.580Z,102318.75
2023-04-15T20:04:00.695Z,102312.59
2023-04-15T20:06:28.886Z,102313.56
2023-04-15T20:08:56.885Z,102312.75
2023-04-15T20:12:47.510Z,102320.91
2023-04-15T20:14:17.595Z,102307.75
2023-04-15T20:16:45.697Z,102318.38
2023-04-15T20:19:15.066Z,102313.97
2023-04-15T20:21:43.092Z,102298.38
2023-04-15T20:24:11.279Z,102297.50
2023-04-15T20:26:39.265Z,102309.81
2023-04-15T20:29:07.532Z,102305.38
2023-04-15T20:31:36.216Z,102309.00
2023-04-15T20:34:04.240Z,102304.69
2023-04-15T20:36:33.684Z,102310.91
2023-04-15T20:39:01.773Z,102296.25
2023-04-15T20:41:30.032Z,102305.69
2023-04-15T20:43:57.967Z,102304.94
2023-04-15T20:46:27.390Z,102302.25
2023-04-15T20:48:56.096Z,102305.88
2023-04-15T20:51:24.060Z,102298.78
2023-04-15T20:53:53.372Z,102305.03
2023-04-15T20:56:21.522Z,102302.41
2023-04-15T20:58:49.582Z,102309.56
2023-04-15T21:01:17.647Z,102313.22
2023-04-15T21:03:45.840Z,102306.13
2023-04-15T21:06:13.926Z,102302.56
2023-04-15T21:08:42.113Z,102301.78
2023-04-15T21:11:11.645Z,102307.16
2023-04-15T21:13:39.722Z,102317.09
2023-04-15T21:16:07.796Z,102304.88
2023-04-15T21:18:35.896Z,102312.66
2023-04-15T21:21:04.012Z,102314.56
2023-04-15T21:23:35.834Z,102311.09
2023-04-15T21:26:04.098Z,102311.09
2023-04-15T21:28:34.111Z,102312.03
2023-04-15T21:31:02.166Z,102309.44
2023-04-15T21:33:30.117Z,102309.44
2023-04-15T21:35:58.249Z,102301.47
2023-04-15T21:38:26.387Z,102308.66
2023-04-15T21:40:55.181Z,102307.84
2023-04-15T21:43:25.606Z,102309.69
2023-04-15T21:46:24.090Z,102308.25
2023-04-15T21:48:43.225Z,102310.63
2023-04-15T21:51:11.201Z,102306.28
2023-04-15T21:53:39.331Z,102304.50
2023-04-15T21:56:08.972Z,102307.16
2023-04-15T21:58:37.440Z,102309.91
2023-04-15T22:01:06.959Z,102306.34
2023-04-15T22:03:36.233Z,102310.00
2023-04-15T22:06:05.181Z,102311.81
2023-04-15T22:08:38.664Z,102318.97
2023-04-15T22:11:10.017Z,102322.53
2023-04-15T22:13:37.953Z,102319.94
2023-04-15T22:16:07.383Z,102313.75
2023-04-15T22:18:35.442Z,102306.81
2023-04-15T22:21:03.396Z,102314.63
2023-04-15T22:23:31.404Z,102316.50
2023-04-15T22:26:00.573Z,102317.38
2023-04-15T22:28:28.625Z,102321.97
2023-04-15T22:30:58.050Z,102325.59
2023-04-15T22:33:27.385Z,102318.47
2023-04-15T22:35:55.438Z,102314.53
2023-04-15T22:38:23.520Z,102328.72
2023-04-15T22:40:53.853Z,102330.47
2023-04-15T22:43:21.823Z,102335.03
2023-04-15T22:45:51.433Z,102335.97
2023-04-15T22:48:19.722Z,102326.28
2023-04-15T22:50:49.438Z,102332.66
2023-04-15T22:53:17.769Z,102333.78
2023-04-15T22:55:46.646Z,102333.78
2023-04-15T22:58:14.657Z,102338.31
2023-04-15T23:00:42.956Z,102333.06
2023-04-15T23:03:11.244Z,102339.44
2023-04-15T23:05:40.112Z,102295.03
2023-04-15T23:08:09.787Z,102333.44
2023-04-15T23:10:39.985Z,102332.66
2023-04-15T23:13:08.137Z,102334.53
2023-04-15T23:15:36.094Z,102332.78
2023-04-15T23:18:04.149Z,102320.47
2023-04-15T23:20:32.142Z,102329.38
2023-04-15T23:23:00.166Z,102331.28
2023-04-15T23:25:29.585Z,102332.22
2023-04-15T23:27:57.517Z,102327.97
2023-04-15T23:30:25.787Z,102335.91
2023-04-15T23:32:53.809Z,102335.13
2023-04-15T23:35:21.905Z,102332.53
2023-04-15T23:37:50.058Z,102336.25
2023-04-15T23:40:18.129Z,102336.25
2023-04-15T23:42:47.453Z,102332.75
2023-04-15T23:45:15.410Z,102337.25
2023-04-15T23:47:43.401Z,102328.50
2023-04-15T23:50:12.270Z,102329.38
2023-04-15T23:52:40.447Z,102329.38
2023-04-15T23:55:09.678Z,102324.16
2023-04-15T23:57:37.683Z,102321.56
